Time;durP1;ratioP1;P1;durP2;ratioP2;P2;SDS_P1;SDS_P2;PMS_P1;PMS_P2;Temp;Humidity;BMP_temperature;BMP_pressure;BME280_temperature;BME280_humidity;BME280_pressure;Samples;Min_cycle;Max_cycle;Signal;HPM_P1;HPM_P2
2023/04/15 00:02:19;;;;;;;10.13;4.20;;;5.50;99.90;;;;;;5058726;28;20294;-73
2023/04/15 00:05:07;;;;;;;5.28;4.22;;;5.50;99.90;;;;;;5061890;28;20221;-74
2023/04/15 00:07:52;;;;;;;6.13;4.32;;;5.40;99.90;;;;;;5063076;28;20211;-75
2023/04/15 00:10:38;;;;;;;8.10;4.97;;;5.40;99.90;;;;;;5055705;28;20226;-74
2023/04/15 00:13:24;;;;;;;6.40;4.80;;;5.50;99.90;;;;;;5063473;28;20231;-74
2023/04/15 00:16:11;;;;;;;14.13;5.47;;;5.60;99.90;;;;;;5065500;28;20431;-74
2023/04/15 00:18:56;;;;;;;8.77;4.72;;;5.40;99.90;;;;;;5062477;28;20198;-74
2023/04/15 00:21:44;;;;;;;14.57;3.85;;;5.30;99.90;;;;;;5062399;28;20226;-73
2023/04/15 00:24:30;;;;;;;6.70;4.88;;;5.20;99.90;;;;;;5060979;28;20219;-74
2023/04/15 00:27:15;;;;;;;7.65;4.82;;;5.20;99.90;;;;;;5068026;28;20288;-72
2023/04/15 00:30:02;;;;;;;6.72;4.43;;;5.10;99.90;;;;;;5064108;28;20234;-74
2023/04/15 00:32:48;;;;;;;7.22;4.63;;;5.10;99.90;;;;;;5059637;28;20566;-74
2023/04/15 00:35:35;;;;;;;6.57;4.43;;;5.00;99.90;;;;;;5064582;28;20215;-74
2023/04/15 00:38:22;;;;;;;8.48;4.93;;;4.80;99.90;;;;;;5062789;28;20245;-74
2023/04/15 00:41:08;;;;;;;6.75;4.63;;;4.80;99.90;;;;;;5063365;28;20218;-73
2023/04/15 00:43:54;;;;;;;8.75;5.30;;;4.90;99.90;;;;;;5067330;28;20271;-75
2023/04/15 00:46:40;;;;;;;6.88;4.70;;;5.00;99.90;;;;;;5062540;28;20318;-75
2023/04/15 00:49:27;;;;;;;6.63;4.55;;;5.10;99.90;;;;;;5065568;28;20303;-74
2023/04/15 00:52:13;;;;;;;6.97;4.53;;;5.00;99.90;;;;;;5065989;28;20222;-73
2023/04/15 00:55:01;;;;;;;8.63;4.78;;;5.00;99.90;;;;;;5066631;28;20806;-74
2023/04/15 00:57:46;;;;;;;7.72;4.65;;;5.10;99.90;;;;;;5061708;28;20204;-74
2023/04/15 01:00:32;;;;;;;9.45;4.95;;;5.10;99.90;;;;;;5057917;28;20222;-73
2023/04/15 01:03:17;;;;;;;11.10;4.85;;;4.90;99.90;;;;;;5070905;28;20229;-74
2023/04/15 01:06:03;;;;;;;8.10;5.53;;;4.90;99.90;;;;;;5067947;28;20207;-73
2023/04/15 01:08:49;;;;;;;9.48;5.10;;;4.90;99.90;;;;;;5077742;28;20644;-74
2023/04/15 01:11:36;;;;;;;9.77;5.13;;;4.90;99.90;;;;;;5063681;28;20238;-73
2023/04/15 01:14:22;;;;;;;10.18;5.43;;;4.90;99.90;;;;;;5066412;28;20249;-74
2023/04/15 01:17:07;;;;;;;5.97;4.45;;;4.80;99.90;;;;;;5067609;28;20693;-74
2023/04/15 01:19:55;;;;;;;10.25;5.15;;;4.90;99.90;;;;;;5062042;28;20238;-74
2023/04/15 01:22:41;;;;;;;9.57;5.13;;;4.80;99.90;;;;;;5063958;28;20346;-73
2023/04/15 01:25:32;;;;;;;6.60;5.28;;;4.80;99.90;;;;;;5067823;28;20213;-73
2023/04/15 01:28:19;;;;;;;8.77;4.80;;;4.80;99.90;;;;;;5064480;28;20341;-75
2023/04/15 01:31:09;;;;;;;7.30;5.00;;;4.80;99.90;;;;;;5064153;28;20230;-74
2023/04/15 01:33:55;;;;;;;12.50;6.32;;;4.80;99.90;;;;;;5068354;28;20296;-74
2023/04/15 01:36:41;;;;;;;6.63;5.30;;;4.70;99.90;;;;;;5068191;28;20290;-75
2023/04/15 01:39:26;;;;;;;7.05;4.28;;;4.80;99.90;;;;;;5061601;28;20211;-74
2023/04/15 01:42:13;;;;;;;6.90;4.03;;;4.80;99.90;;;;;;5066217;28;20280;-72
2023/04/15 01:44:59;;;;;;;8.68;4.35;;;4.80;99.90;;;;;;5066274;28;20206;-74
2023/04/15 01:47:45;;;;;;;5.22;4.10;;;4.80;99.90;;;;;;5065323;28;20210;-73
2023/04/15 01:50:31;;;;;;;5.60;4.80;;;4.90;99.90;;;;;;5061559;28;20226;-74
2023/04/15 01:53:16;;;;;;;9.07;4.70;;;4.80;99.90;;;;;;5065679;28;20284;-74
2023/04/15 01:56:02;;;;;;;6.88;4.90;;;4.80;99.90;;;;;;5067521;28;20526;-75
2023/04/15 01:58:49;;;;;;;5.68;3.90;;;4.70;99.90;;;;;;5069306;28;20257;-74
2023/04/15 02:01:34;;;;;;;8.13;4.63;;;4.60;99.90;;;;;;5065564;28;20348;-74
2023/04/15 02:04:20;;;;;;;7.13;4.20;;;4.60;99.90;;;;;;5060223;28;20207;-75
2023/04/15 02:07:06;;;;;;;7.45;4.50;;;4.60;99.90;;;;;;5067287;28;20318;-74
2023/04/15 02:09:52;;;;;;;6.32;4.50;;;4.60;99.90;;;;;;5063910;28;20228;-74
2023/04/15 02:12:37;;;;;;;7.10;4.45;;;4.40;99.90;;;;;;5067248;28;20205;-74
2023/04/15 02:15:25;;;;;;;5.18;4.10;;;4.40;99.90;;;;;;5062203;28;20576;-74
2023/04/15 02:18:10;;;;;;;7.05;4.15;;;4.40;99.90;;;;;;5066659;28;20214;-74
2023/04/15 02:20:57;;;;;;;5.97;4.00;;;4.40;99.90;;;;;;5064408;28;20362;-74
2023/04/15 02:23:42;;;;;;;4.70;3.88;;;4.40;99.90;;;;;;5069736;28;20206;-74
2023/04/15 02:26:30;;;;;;;4.82;3.42;;;4.40;99.90;;;;;;5066324;28;20206;-74
2023/04/15 02:29:16;;;;;;;9.77;4.22;;;4.40;99.90;;;;;;5068768;28;20249;-74
2023/04/15 02:32:03;;;;;;;5.82;4.88;;;4.50;99.90;;;;;;5066225;28;20304;-75
2023/04/15 02:34:49;;;;;;;7.80;4.65;;;4.40;99.90;;;;;;5067661;28;20219;-74
2023/04/15 02:37:40;;;;;;;6.18;4.40;;;4.40;99.90;;;;;;5071215;28;20231;-75
2023/04/15 02:40:26;;;;;;;5.75;3.63;;;4.30;99.90;;;;;;5063143;28;20200;-74
2023/04/15 02:43:11;;;;;;;5.53;3.95;;;4.30;99.90;;;;;;5082073;22;20719;-70
2023/04/15 02:45:57;;;;;;;6.03;3.72;;;4.20;99.90;;;;;;5061372;28;20207;-71
2023/04/15 02:48:44;;;;;;;5.80;3.58;;;4.10;99.90;;;;;;5065199;28;20262;-71
2023/04/15 02:51:31;;;;;;;12.55;4.43;;;4.10;99.90;;;;;;5064617;28;20232;-70
2023/04/15 02:54:17;;;;;;;6.60;3.65;;;4.10;99.90;;;;;;5060169;28;20206;-71
2023/04/15 02:57:05;;;;;;;5.97;4.13;;;4.20;99.90;;;;;;5067140;28;20570;-71
2023/04/15 02:59:51;;;;;;;8.20;4.32;;;4.40;99.90;;;;;;5059981;28;20345;-71
2023/04/15 03:02:37;;;;;;;6.68;4.15;;;4.50;99.90;;;;;;5067461;28;20228;-71
2023/04/15 03:05:24;;;;;;;7.25;4.28;;;4.40;99.90;;;;;;5064058;28;20690;-71
2023/04/15 03:08:10;;;;;;;5.88;4.22;;;4.30;99.90;;;;;;5063778;28;20571;-71
2023/04/15 03:10:59;;;;;;;6.65;4.07;;;4.40;99.90;;;;;;5059781;28;20235;-71
2023/04/15 03:13:45;;;;;;;5.00;4.10;;;4.50;99.90;;;;;;5059853;28;20692;-70
2023/04/15 03:16:31;;;;;;;7.03;3.70;;;4.50;99.90;;;;;;5063643;28;20634;-71
2023/04/15 03:19:16;;;;;;;7.95;5.97;;;4.40;99.90;;;;;;5062027;28;20244;-71
2023/04/15 03:22:04;;;;;;;4.00;3.40;;;4.30;99.90;;;;;;5065891;28;20715;-70
2023/04/15 03:24:49;;;;;;;8.90;4.10;;;4.20;99.90;;;;;;5061226;28;20329;-71
2023/04/15 03:27:35;;;;;;;6.03;4.10;;;4.20;99.90;;;;;;5064931;28;20245;-71
2023/04/15 03:30:21;;;;;;;7.28;4.53;;;4.10;99.90;;;;;;5063542;28;20242;-71
2023/04/15 03:33:07;;;;;;;6.60;4.13;;;4.10;99.90;;;;;;5066872;28;20699;-71
2023/04/15 03:35:53;;;;;;;6.80;4.30;;;4.10;99.90;;;;;;5059820;28;20209;-70
2023/04/15 03:38:40;;;;;;;6.97;4.43;;;4.10;99.90;;;;;;5053546;28;20207;-71
2023/04/15 03:41:25;;;;;;;7.95;4.53;;;4.00;99.90;;;;;;5061136;28;20809;-70
2023/04/15 03:44:11;;;;;;;5.60;3.97;;;3.90;99.90;;;;;;5061602;28;20718;-70
2023/04/15 03:46:57;;;;;;;9.05;4.50;;;3.90;99.90;;;;;;5063324;28;20284;-70
2023/04/15 03:49:43;;;;;;;5.60;4.05;;;4.00;99.90;;;;;;5061350;28;20737;-70
2023/04/15 03:52:28;;;;;;;6.07;4.22;;;4.10;99.90;;;;;;5064420;28;20249;-70
2023/04/15 03:55:16;;;;;;;6.88;4.85;;;4.10;99.90;;;;;;5058936;28;20887;-70
2023/04/15 03:58:01;;;;;;;9.48;4.40;;;4.10;99.90;;;;;;5059134;28;20206;-70
2023/04/15 04:00:46;;;;;;;7.82;4.32;;;4.20;99.90;;;;;;5063072;28;20671;-71
2023/04/15 04:03:32;;;;;;;5.45;4.30;;;4.30;99.90;;;;;;5066345;28;20209;-71
2023/04/15 04:06:18;;;;;;;3.70;3.20;;;4.40;99.90;;;;;;5061325;28;20834;-70
2023/04/15 04:09:03;;;;;;;4.05;3.40;;;4.40;99.90;;;;;;5058539;28;20585;-71
2023/04/15 04:11:50;;;;;;;5.22;3.60;;;4.40;99.90;;;;;;5063297;28;20219;-70
2023/04/15 04:14:36;;;;;;;4.82;2.85;;;4.40;99.90;;;;;;5066845;28;20213;-70
2023/04/15 04:17:22;;;;;;;7.15;3.33;;;4.40;99.90;;;;;;5064849;28;20215;-71
2023/04/15 04:20:08;;;;;;;6.18;4.00;;;4.40;99.90;;;;;;5064628;28;20739;-70
2023/04/15 04:22:54;;;;;;;5.85;3.67;;;4.30;99.90;;;;;;5056358;28;20647;-70
2023/04/15 04:25:40;;;;;;;7.80;4.28;;;4.30;99.90;;;;;;5064179;28;20577;-74
2023/04/15 04:28:27;;;;;;;4.07;3.63;;;4.30;99.90;;;;;;5060499;28;20571;-70
2023/04/15 04:31:13;;;;;;;6.90;4.60;;;4.30;99.90;;;;;;5064307;28;20256;-70
2023/04/15 04:33:58;;;;;;;6.53;4.30;;;4.20;99.90;;;;;;5066439;28;20718;-70
2023/04/15 04:36:44;;;;;;;9.00;3.80;;;4.10;99.90;;;;;;5062371;28;20670;-71
2023/04/15 04:39:30;;;;;;;4.95;3.85;;;3.90;99.90;;;;;;5059804;28;20267;-70
2023/04/15 04:42:15;;;;;;;9.23;4.22;;;4.00;99.90;;;;;;5059699;28;20238;-71
2023/04/15 04:45:02;;;;;;;6.30;4.15;;;3.80;99.90;;;;;;5063432;28;20203;-71
2023/04/15 04:47:48;;;;;;;6.32;3.65;;;3.80;99.90;;;;;;5055783;28;20213;-70
2023/04/15 04:50:34;;;;;;;4.90;3.35;;;3.70;99.90;;;;;;5059953;28;20231;-70
2023/04/15 04:53:19;;;;;;;5.75;3.90;;;3.70;99.90;;;;;;5056769;28;20296;-71
2023/04/15 04:56:05;;;;;;;7.78;4.07;;;3.80;99.90;;;;;;5063295;28;20571;-71
2023/04/15 04:58:51;;;;;;;5.90;3.88;;;3.80;99.90;;;;;;5061849;28;20706;-71
2023/04/15 05:01:38;;;;;;;5.72;4.15;;;3.80;99.90;;;;;;5057869;28;20229;-71
2023/04/15 05:04:23;;;;;;;5.05;4.00;;;3.90;99.90;;;;;;5062805;28;20678;-70
2023/04/15 05:07:09;;;;;;;6.70;4.50;;;3.90;99.90;;;;;;5060289;28;20208;-71
2023/04/15 05:09:55;;;;;;;6.45;4.60;;;4.00;99.90;;;;;;5060592;28;20296;-70
2023/04/15 05:12:41;;;;;;;8.25;4.70;;;4.10;99.90;;;;;;5066342;28;20227;-71
2023/04/15 05:15:27;;;;;;;8.15;6.10;;;4.20;99.90;;;;;;5064782;28;21139;-71
2023/04/15 05:18:13;;;;;;;9.50;5.25;;;4.20;99.90;;;;;;5057891;28;20206;-70
2023/04/15 05:20:59;;;;;;;7.40;4.22;;;4.20;99.90;;;;;;5064729;28;20313;-71
2023/04/15 05:23:44;;;;;;;9.50;4.20;;;4.20;99.90;;;;;;5061344;28;20319;-70
2023/04/15 05:26:30;;;;;;;9.55;4.30;;;4.30;99.90;;;;;;5059189;28;20749;-70
2023/04/15 05:29:16;;;;;;;5.07;4.18;;;4.30;99.90;;;;;;5063819;28;20320;-70
2023/04/15 05:32:02;;;;;;;6.20;4.78;;;4.20;99.90;;;;;;5059630;28;20222;-70
2023/04/15 05:34:49;;;;;;;5.20;4.40;;;4.30;99.90;;;;;;5062121;28;20289;-70
2023/04/15 05:37:35;;;;;;;10.25;4.80;;;4.20;99.90;;;;;;5065923;28;20206;-72
2023/04/15 05:40:21;;;;;;;6.60;5.45;;;4.20;99.90;;;;;;5060323;28;20202;-70
2023/04/15 05:43:06;;;;;;;7.57;5.72;;;4.20;99.90;;;;;;5056735;28;20319;-72
2023/04/15 05:45:52;;;;;;;7.50;6.32;;;4.20;99.90;;;;;;5059591;28;20211;-70
2023/04/15 05:48:38;;;;;;;11.70;7.03;;;4.20;99.90;;;;;;5058703;28;20199;-72
2023/04/15 05:51:25;;;;;;;12.13;5.78;;;4.20;99.90;;;;;;5065295;28;20599;-70
2023/04/15 05:54:10;;;;;;;8.40;6.70;;;4.10;99.90;;;;;;5067281;28;20565;-72
2023/04/15 05:56:57;;;;;;;7.72;5.53;;;4.10;99.90;;;;;;5059812;28;20268;-70
2023/04/15 05:59:43;;;;;;;7.03;5.22;;;4.10;99.90;;;;;;5064795;28;20210;-72
2023/04/15 06:02:29;;;;;;;7.32;5.15;;;4.30;99.90;;;;;;5066834;28;20297;-72
2023/04/15 06:05:14;;;;;;;8.05;6.00;;;4.30;99.90;;;;;;5063642;28;20214;-72
2023/04/15 06:08:01;;;;;;;6.07;5.05;;;4.20;99.90;;;;;;5060054;28;20207;-72
2023/04/15 06:10:47;;;;;;;8.32;5.22;;;4.30;99.90;;;;;;5062061;28;20257;-72
2023/04/15 06:13:33;;;;;;;6.13;5.53;;;4.40;99.90;;;;;;5067224;28;20215;-71
2023/04/15 06:16:19;;;;;;;9.48;6.07;;;4.40;99.90;;;;;;5058836;28;20216;-72
2023/04/15 06:19:05;;;;;;;5.70;5.18;;;4.50;99.90;;;;;;5065104;28;20292;-71
2023/04/15 06:21:50;;;;;;;7.32;5.60;;;4.60;99.90;;;;;;5059161;28;20238;-71
2023/04/15 06:24:37;;;;;;;6.07;5.32;;;4.70;99.90;;;;;;5066304;28;20261;-72
2023/04/15 06:27:23;;;;;;;7.78;6.00;;;4.80;99.90;;;;;;5059094;28;20337;-71
2023/04/15 06:30:10;;;;;;;6.63;5.85;;;4.80;99.90;;;;;;5064249;28;20627;-71
2023/04/15 06:32:55;;;;;;;11.77;5.85;;;4.90;99.90;;;;;;5062232;28;20603;-71
2023/04/15 06:35:41;;;;;;;8.95;6.65;;;4.90;99.90;;;;;;5064018;28;20207;-71
2023/04/15 06:38:27;;;;;;;7.78;5.60;;;4.80;99.90;;;;;;5064627;28;20198;-71
2023/04/15 06:41:14;;;;;;;6.93;5.05;;;4.80;99.90;;;;;;5063771;28;20623;-71
2023/04/15 06:44:00;;;;;;;9.35;7.07;;;4.90;99.90;;;;;;5062727;28;20343;-71
2023/04/15 06:46:45;;;;;;;20.25;11.10;;;5.00;99.90;;;;;;5062204;28;20207;-71
2023/04/15 06:49:32;;;;;;;9.73;7.90;;;5.00;99.90;;;;;;5067445;28;20202;-71
2023/04/15 06:52:18;;;;;;;10.60;7.38;;;5.10;99.90;;;;;;5060633;28;20227;-71
2023/04/15 06:55:04;;;;;;;8.60;6.85;;;5.20;99.90;;;;;;5062794;28;20534;-72
2023/04/15 06:57:51;;;;;;;13.50;7.22;;;5.30;99.90;;;;;;5066766;28;20309;-71
2023/04/15 07:00:38;;;;;;;12.00;7.10;;;5.30;99.90;;;;;;5069102;28;20214;-71
2023/04/15 07:03:23;;;;;;;8.10;6.82;;;5.50;99.90;;;;;;5059635;28;20243;-71
2023/04/15 07:06:09;;;;;;;14.05;10.88;;;5.50;99.90;;;;;;5060053;28;20199;-71
2023/04/15 07:08:56;;;;;;;13.23;9.43;;;5.60;99.90;;;;;;5058060;28;20652;-70
2023/04/15 07:11:42;;;;;;;10.18;8.05;;;5.60;99.90;;;;;;5056780;28;20289;-71
2023/04/15 07:14:29;;;;;;;11.80;6.63;;;5.70;99.90;;;;;;5062491;28;20672;-71
2023/04/15 07:17:15;;;;;;;16.45;9.10;;;5.90;99.90;;;;;;5066599;28;20215;-72
2023/04/15 07:20:01;;;;;;;11.07;7.90;;;6.00;99.90;;;;;;5065230;28;20207;-71
2023/04/15 07:22:47;;;;;;;10.98;8.45;;;6.10;99.90;;;;;;5059226;28;21197;-71
2023/04/15 07:25:32;;;;;;;11.30;8.90;;;6.20;99.90;;;;;;5057677;28;20217;-71
2023/04/15 07:28:18;;;;;;;12.98;8.48;;;6.30;99.90;;;;;;5061363;28;20571;-71
2023/04/15 07:31:05;;;;;;;13.05;8.27;;;6.40;99.90;;;;;;5061682;28;20218;-71
2023/04/15 07:33:51;;;;;;;10.98;7.93;;;6.50;99.90;;;;;;5064442;28;20214;-71
2023/04/15 07:36:36;;;;;;;11.43;7.50;;;6.60;99.90;;;;;;5058245;28;20206;-71
2023/04/15 07:39:22;;;;;;;8.40;6.77;;;6.70;99.90;;;;;;5063465;28;20461;-71
2023/04/15 07:42:08;;;;;;;11.33;7.10;;;6.80;99.90;;;;;;5058514;28;20444;-71
2023/04/15 07:44:54;;;;;;;7.40;6.30;;;7.00;99.90;;;;;;5055564;28;20445;-71
2023/04/15 07:47:41;;;;;;;7.40;6.03;;;7.10;99.90;;;;;;5057481;28;20469;-71
2023/04/15 07:50:27;;;;;;;10.07;7.07;;;7.30;99.90;;;;;;5062775;28;20450;-73
2023/04/15 07:53:13;;;;;;;7.90;6.80;;;7.40;99.90;;;;;;5064809;28;20510;-71
2023/04/15 07:55:59;;;;;;;9.57;6.37;;;7.60;99.90;;;;;;5054536;28;20860;-72
2023/04/15 07:58:44;;;;;;;10.40;7.57;;;7.70;99.90;;;;;;5062321;28;20449;-71
2023/04/15 08:01:31;;;;;;;9.80;6.83;;;7.80;99.90;;;;;;5055980;28;20480;-71
2023/04/15 08:04:18;;;;;;;8.20;6.73;;;7.90;99.90;;;;;;5059839;28;21326;-71
2023/04/15 08:07:04;;;;;;;6.83;5.70;;;8.00;99.90;;;;;;5062516;28;20433;-71
2023/04/15 08:09:50;;;;;;;10.23;5.70;;;8.00;99.90;;;;;;5058460;28;20472;-71
2023/04/15 08:12:36;;;;;;;25.20;6.60;;;8.30;99.90;;;;;;5063933;28;20479;-71
2023/04/15 08:15:22;;;;;;;7.90;4.57;;;8.50;99.90;;;;;;5058183;28;20463;-71
2023/04/15 08:18:08;;;;;;;8.07;4.30;;;8.70;99.90;;;;;;5064477;28;20527;-71
2023/04/15 08:20:55;;;;;;;14.37;5.67;;;9.00;99.90;;;;;;5065389;28;20420;-71
2023/04/15 08:23:41;;;;;;;8.83;3.47;;;9.30;99.90;;;;;;5055205;28;20785;-72
2023/04/15 08:26:26;;;;;;;5.30;4.70;;;9.50;99.90;;;;;;5053583;28;20484;-72
2023/04/15 08:29:12;;;;;;;6.40;4.87;;;9.70;99.90;;;;;;5064718;28;20445;-72
2023/04/15 08:31:59;;;;;;;7.97;4.77;;;9.90;99.90;;;;;;5060992;28;20898;-72
2023/04/15 08:34:45;;;;;;;7.20;5.33;;;10.20;99.90;;;;;;5063752;28;21203;-72
2023/04/15 08:37:32;;;;;;;8.33;5.40;;;10.30;99.90;;;;;;5061935;28;20538;-72
2023/04/15 08:40:17;;;;;;;5.63;4.90;;;10.50;99.90;;;;;;5064222;28;20431;-72
2023/04/15 08:43:05;;;;;;;9.70;5.33;;;10.70;99.90;;;;;;5059283;28;20453;-72
2023/04/15 08:45:51;;;;;;;11.23;5.63;;;10.80;99.90;;;;;;5056949;28;20579;-71
2023/04/15 08:48:39;;;;;;;8.13;4.83;;;10.90;99.90;;;;;;5061377;28;20455;-71
2023/04/15 08:51:25;;;;;;;6.13;4.80;;;11.10;99.90;;;;;;5062847;28;20456;-70
2023/04/15 08:54:12;;;;;;;5.70;5.10;;;11.10;99.90;;;;;;5062272;28;20408;-71
2023/04/15 08:56:58;;;;;;;7.70;5.30;;;11.30;99.90;;;;;;5060476;28;20444;-71
2023/04/15 08:59:44;;;;;;;8.37;5.93;;;11.40;99.90;;;;;;5064629;28;20438;-72
2023/04/15 09:02:29;;;;;;;7.87;5.30;;;11.50;98.10;;;;;;5056826;28;21071;-72
2023/04/15 09:05:15;;;;;;;8.97;5.33;;;11.70;96.70;;;;;;5057737;28;20788;-71
2023/04/15 09:08:01;;;;;;;8.83;5.60;;;11.80;97.10;;;;;;5062598;28;20437;-71
2023/04/15 09:10:48;;;;;;;6.83;4.70;;;11.90;95.50;;;;;;5060263;28;21007;-71
2023/04/15 09:13:34;;;;;;;13.37;6.60;;;12.00;95.60;;;;;;5060286;28;20438;-72
2023/04/15 09:16:19;;;;;;;8.73;6.10;;;12.20;96.10;;;;;;5055117;28;20452;-72
2023/04/15 09:19:21;;;;;;;10.33;6.90;;;12.30;95.60;;;;;;5053924;28;21060;-72
2023/04/15 09:22:07;;;;;;;11.30;7.33;;;12.40;91.40;;;;;;5059006;28;20500;-72
2023/04/15 09:24:53;;;;;;;9.10;6.60;;;12.40;91.20;;;;;;5061093;28;20422;-72
2023/04/15 09:27:48;;;;;;;10.70;6.93;;;12.40;90.80;;;;;;5059725;28;20488;-72
2023/04/15 09:30:34;;;;;;;13.03;7.53;;;12.40;91.60;;;;;;5064244;28;20538;-72
2023/04/15 09:33:20;;;;;;;7.60;6.00;;;12.50;92.50;;;;;;5070294;28;20592;-72
2023/04/15 09:36:06;;;;;;;8.37;5.90;;;12.60;87.50;;;;;;5062759;28;20439;-72
2023/04/15 09:38:57;;;;;;;9.07;6.87;;;12.70;84.10;;;;;;5065754;28;20457;-72
2023/04/15 09:41:43;;;;;;;8.47;6.67;;;12.80;78.90;;;;;;5063363;28;20448;-72
2023/04/15 09:44:30;;;;;;;7.40;5.53;;;12.80;72.20;;;;;;5067263;28;20576;-72
2023/04/15 09:47:28;;;;;;;7.90;5.20;;;12.90;72.00;;;;;;5069677;28;20463;-72
2023/04/15 09:50:14;;;;;;;8.60;5.17;;;12.80;69.60;;;;;;5060891;28;20411;-72
2023/04/15 09:53:03;;;;;;;7.17;4.83;;;12.80;67.80;;;;;;5067567;28;20489;-72
2023/04/15 09:55:51;;;;;;;5.70;4.17;;;12.60;70.10;;;;;;5060299;28;20500;-72
2023/04/15 09:58:38;;;;;;;5.00;3.60;;;12.60;69.50;;;;;;5065718;28;20536;-72
2023/04/15 10:01:25;;;;;;;9.67;3.67;;;12.60;65.60;;;;;;5069171;28;20808;-72
2023/04/15 10:04:11;;;;;;;5.67;3.50;;;12.70;65.10;;;;;;5063538;28;20509;-72
2023/04/15 10:06:57;;;;;;;2.93;2.63;;;12.70;65.80;;;;;;5068496;28;21033;-72
2023/04/15 10:09:45;;;;;;;5.47;3.63;;;12.70;64.50;;;;;;5062659;28;20864;-72
2023/04/15 10:12:32;;;;;;;7.80;3.17;;;12.70;61.20;;;;;;5070108;28;20529;-72
2023/04/15 10:15:19;;;;;;;6.90;3.60;;;12.70;60.90;;;;;;5066582;28;20449;-72
2023/04/15 10:18:10;;;;;;;5.50;2.87;;;12.70;60.90;;;;;;5064790;28;20468;-72
2023/04/15 10:20:56;;;;;;;12.40;3.77;;;12.60;62.10;;;;;;5068073;28;20454;-72
2023/04/15 10:23:42;;;;;;;7.20;3.90;;;12.60;63.00;;;;;;5070199;28;20420;-72
2023/04/15 10:26:28;;;;;;;5.90;3.57;;;12.60;65.30;;;;;;5065633;28;20568;-72
2023/04/15 10:29:14;;;;;;;3.47;2.70;;;12.60;66.20;;;;;;5060681;28;20418;-72
2023/04/15 10:32:01;;;;;;;5.47;3.17;;;12.70;66.40;;;;;;5065598;28;20541;-72
2023/04/15 10:34:50;;;;;;;7.70;3.40;;;12.60;64.60;;;;;;5065850;28;20503;-72
2023/04/15 10:37:36;;;;;;;4.70;3.57;;;12.50;63.90;;;;;;5068272;28;20572;-72
2023/04/15 10:40:27;;;;;;;7.17;3.57;;;12.50;65.40;;;;;;5062783;28;20914;-72
2023/04/15 10:43:25;;;;;;;9.00;4.37;;;12.50;64.50;;;;;;5061368;28;20443;-72
2023/04/15 10:46:11;;;;;;;6.70;4.03;;;12.30;63.50;;;;;;5068025;28;20450;-72
2023/04/15 10:48:56;;;;;;;39.10;5.60;;;12.20;63.10;;;;;;5062859;28;20423;-72
2023/04/15 10:51:46;;;;;;;4.90;3.83;;;12.20;64.20;;;;;;5068858;28;20974;-72
2023/04/15 10:54:35;;;;;;;5.33;3.77;;;12.20;66.80;;;;;;5063313;28;21051;-72
2023/04/15 10:57:23;;;;;;;5.27;3.87;;;12.20;66.40;;;;;;5064387;28;20411;-72
2023/04/15 11:00:14;;;;;;;9.40;4.40;;;12.30;67.40;;;;;;5062544;28;20952;-72
2023/04/15 11:03:06;;;;;;;7.40;3.50;;;12.40;66.50;;;;;;5066504;28;20430;-72
2023/04/15 11:05:53;;;;;;;7.17;3.13;;;12.40;65.00;;;;;;5062680;28;20506;-72
2023/04/15 11:08:58;;;;;;;6.33;3.10;;;12.40;61.90;;;;;;5063146;28;20457;-72
2023/04/15 11:12:06;;;;;;;5.20;3.10;;;12.50;60.00;;;;;;5062736;28;20830;-72
2023/04/15 11:14:51;;;;;;;4.67;3.07;;;12.50;59.50;;;;;;5065997;28;20463;-72
2023/04/15 11:17:37;;;;;;;4.07;2.30;;;12.40;59.40;;;;;;5067668;28;20829;-72
2023/04/15 11:20:23;;;;;;;4.63;2.53;;;12.40;59.10;;;;;;5069303;28;20938;-72
2023/04/15 11:23:09;;;;;;;3.73;2.43;;;12.40;59.70;;;;;;5062458;28;20456;-72
2023/04/15 11:25:58;;;;;;;6.40;1.90;;;12.50;60.30;;;;;;5064789;28;20446;-72
2023/04/15 11:28:45;;;;;;;5.17;1.90;;;12.50;60.90;;;;;;5058584;28;20915;-72
2023/04/15 11:31:30;;;;;;;8.30;1.93;;;12.60;60.60;;;;;;5065224;28;20438;-72
2023/04/15 11:34:23;;;;;;;3.17;2.10;;;12.70;58.80;;;;;;5064474;28;20444;-72
2023/04/15 11:37:09;;;;;;;2.83;1.93;;;12.80;56.90;;;;;;5063123;28;20425;-72
2023/04/15 11:39:55;;;;;;;3.57;1.70;;;13.00;55.60;;;;;;5063882;28;20826;-72
2023/04/15 11:42:42;;;;;;;2.93;2.00;;;13.30;55.90;;;;;;5065517;28;20496;-72
2023/04/15 11:45:28;;;;;;;3.03;1.80;;;13.50;53.00;;;;;;5065881;28;20799;-72
2023/04/15 11:48:14;;;;;;;8.07;2.03;;;13.80;59.90;;;;;;5060110;28;20819;-72
2023/04/15 11:51:02;;;;;;;2.80;1.37;;;14.00;54.00;;;;;;5064452;28;21113;-72
2023/04/15 11:53:49;;;;;;;4.93;2.53;;;14.20;51.80;;;;;;5058060;28;20468;-72
2023/04/15 11:56:35;;;;;;;4.60;2.53;;;14.30;37.10;;;;;;5065921;28;20969;-72
2023/04/15 11:59:22;;;;;;;5.13;2.70;;;14.30;36.10;;;;;;5059253;28;20416;-72
2023/04/15 12:02:12;;;;;;;8.20;2.80;;;14.40;36.30;;;;;;5067215;28;20586;-72
2023/04/15 12:05:04;;;;;;;2.40;1.80;;;14.40;37.60;;;;;;5068460;28;20511;-72
2023/04/15 12:07:59;;;;;;;4.10;2.40;;;14.40;37.90;;;;;;5064382;28;20760;-72
2023/04/15 12:10:45;;;;;;;4.50;2.80;;;14.30;35.40;;;;;;5061527;28;20982;-72
2023/04/15 12:13:31;;;;;;;4.40;2.17;;;14.20;36.70;;;;;;5065637;28;20537;-72
2023/04/15 12:16:19;;;;;;;3.57;2.20;;;13.90;34.90;;;;;;5059301;28;21054;-72
2023/04/15 12:19:07;;;;;;;3.27;2.07;;;13.80;35.10;;;;;;5060567;28;20512;-72
2023/04/15 12:21:58;;;;;;;3.03;2.20;;;13.60;39.00;;;;;;5060793;28;20469;-72
2023/04/15 12:24:47;;;;;;;4.40;2.37;;;13.50;37.50;;;;;;5065421;28;20438;-72
2023/04/15 12:27:35;;;;;;;5.47;2.37;;;13.40;35.20;;;;;;5061009;28;20968;-71
2023/04/15 12:30:20;;;;;;;3.23;2.27;;;13.50;37.40;;;;;;5059912;28;20850;-72
2023/04/15 12:33:09;;;;;;;5.40;2.13;;;13.50;39.20;;;;;;5065626;28;20455;-72
2023/04/15 12:35:54;;;;;;;3.60;2.13;;;13.50;36.40;;;;;;5067678;28;20487;-72
2023/04/15 12:38:40;;;;;;;3.30;2.00;;;13.50;36.10;;;;;;5064562;28;20504;-72
2023/04/15 12:41:25;;;;;;;3.40;2.23;;;13.50;34.20;;;;;;5062383;28;20450;-72
2023/04/15 12:44:11;;;;;;;4.87;1.90;;;13.50;35.90;;;;;;5067019;28;20469;-72
2023/04/15 12:46:57;;;;;;;3.20;2.20;;;13.60;36.10;;;;;;5060915;28;20445;-72
2023/04/15 12:49:44;;;;;;;3.30;1.97;;;13.60;34.20;;;;;;5063278;28;20429;-71
2023/04/15 12:52:30;;;;;;;3.53;1.90;;;13.60;34.70;;;;;;5065595;28;20983;-72
2023/04/15 12:55:16;;;;;;;5.70;1.80;;;13.60;35.00;;;;;;5060839;28;20469;-72
2023/04/15 12:58:01;;;;;;;4.60;2.00;;;13.50;34.00;;;;;;5057587;28;20918;-72
2023/04/15 13:00:47;;;;;;;3.30;1.77;;;13.40;33.10;;;;;;5063751;28;20427;-71
2023/04/15 13:03:33;;;;;;;5.00;2.10;;;13.40;33.10;;;;;;5069570;28;20520;-71
2023/04/15 13:06:21;;;;;;;3.70;1.83;;;13.40;34.60;;;;;;5069649;28;20430;-71
2023/04/15 13:09:06;;;;;;;7.53;3.10;;;13.30;35.80;;;;;;5067999;28;20947;-71
2023/04/15 13:11:53;;;;;;;3.40;1.97;;;13.30;35.70;;;;;;5069170;28;20967;-72
2023/04/15 13:14:38;;;;;;;5.67;1.90;;;13.20;36.90;;;;;;5066449;28;20469;-72
2023/04/15 13:17:24;;;;;;;4.90;1.93;;;13.30;38.10;;;;;;5058908;28;20419;-72
2023/04/15 13:20:10;;;;;;;5.47;2.30;;;13.20;37.90;;;;;;5067875;28;20457;-72
2023/04/15 13:22:57;;;;;;;7.97;3.10;;;13.10;41.20;;;;;;5064784;28;20520;-72
2023/04/15 13:25:43;;;;;;;3.93;2.60;;;13.10;41.00;;;;;;5064046;28;20427;-72
2023/04/15 13:28:28;;;;;;;3.70;2.63;;;13.00;45.80;;;;;;5066372;28;20549;-72
2023/04/15 13:31:14;;;;;;;3.93;2.60;;;13.00;45.80;;;;;;5065068;28;20789;-72
2023/04/15 13:34:00;;;;;;;4.50;3.13;;;13.00;53.50;;;;;;5065874;28;20577;-72
2023/04/15 13:36:46;;;;;;;4.30;3.60;;;13.00;69.60;;;;;;5067329;28;20440;-72
2023/04/15 13:39:32;;;;;;;24.97;11.47;;;12.90;78.70;;;;;;5067232;28;20779;-72
2023/04/15 13:42:18;;;;;;;8.47;4.67;;;12.70;85.50;;;;;;5066174;28;20586;-71
2023/04/15 13:45:04;;;;;;;8.33;6.33;;;12.50;90.40;;;;;;5070898;28;20426;-71
2023/04/15 13:47:50;;;;;;;4.90;3.77;;;12.40;92.00;;;;;;5062519;28;20999;-71
2023/04/15 13:50:36;;;;;;;4.60;3.63;;;12.30;95.00;;;;;;5063705;28;21006;-72
2023/04/15 13:53:21;;;;;;;5.00;3.50;;;12.20;96.80;;;;;;5069649;28;20552;-72
2023/04/15 13:56:09;;;;;;;5.60;4.43;;;12.20;99.60;;;;;;5066439;28;20573;-72
2023/04/15 13:58:57;;;;;;;10.10;7.67;;;12.20;99.90;;;;;;5066647;28;20444;-72
2023/04/15 14:01:43;;;;;;;8.00;5.47;;;12.20;99.90;;;;;;5067985;28;20461;-72
2023/04/15 14:04:29;;;;;;;7.63;5.70;;;12.20;99.90;;;;;;5071338;28;20794;-72
2023/04/15 14:07:15;;;;;;;7.47;4.90;;;12.10;99.90;;;;;;5060347;28;20538;-72
2023/04/15 14:10:01;;;;;;;6.03;5.00;;;12.10;99.90;;;;;;5069424;28;20419;-72
2023/04/15 14:12:48;;;;;;;15.40;10.87;;;12.10;99.90;;;;;;5070743;28;20473;-72
2023/04/15 14:15:33;;;;;;;20.77;18.63;;;12.00;99.90;;;;;;5054253;28;20433;-72
2023/04/15 14:18:19;;;;;;;14.63;12.47;;;12.00;99.90;;;;;;5064910;28;20708;-72
2023/04/15 14:21:06;;;;;;;10.70;9.70;;;12.00;99.90;;;;;;5060604;28;20534;-72
2023/04/15 14:23:51;;;;;;;5.10;4.30;;;12.00;99.90;;;;;;5061911;28;20431;-71
2023/04/15 14:26:37;;;;;;;27.73;25.53;;;12.00;99.90;;;;;;5063767;28;20415;-71
2023/04/15 14:29:25;;;;;;;4.00;3.60;;;12.10;99.90;;;;;;5061342;28;20562;-72
2023/04/15 14:32:11;;;;;;;8.07;7.37;;;12.10;99.90;;;;;;5067115;28;20497;-71